createdAt,value
2022-10-26T00:00:39.137Z,31.60
2022-10-26T00:04:01.266Z,31.50
2022-10-26T00:07:03.254Z,31.50
2022-10-26T00:10:05.769Z,31.40
2022-10-26T00:13:12.646Z,31.40
2022-10-26T00:16:28.879Z,31.40
2022-10-26T00:19:34.141Z,31.40
2022-10-26T00:22:36.250Z,31.40
2022-10-26T00:25:38.464Z,31.40
2022-10-26T00:28:43.227Z,31.40
2022-10-26T00:31:45.242Z,31.40
2022-10-26T00:34:47.357Z,31.40
2022-10-26T00:37:49.492Z,31.40
2022-10-26T00:40:51.855Z,31.30
2022-10-26T00:43:54.956Z,31.30
2022-10-26T00:46:57.127Z,31.20
2022-10-26T00:50:04.543Z,31.20
2022-10-26T00:53:07.013Z,31.20
2022-10-26T00:56:09.254Z,31.20
2022-10-26T00:59:13.720Z,31.20
2022-10-26T01:02:15.603Z,31.20
2022-10-26T01:05:19.197Z,31.20
2022-10-26T01:08:21.405Z,31.20
2022-10-26T01:11:23.893Z,31.20
2022-10-26T01:14:28.316Z,31.20
2022-10-26T01:17:56.657Z,31.20
2022-10-26T01:21:20.009Z,31.20
2022-10-26T01:24:43.504Z,31.30
2022-10-26T01:27:51.439Z,31.40
2022-10-26T01:30:57.853Z,31.40
2022-10-26T01:34:46.363Z,31.50
2022-10-26T01:38:11.528Z,31.50
2022-10-26T01:41:33.354Z,31.70
2022-10-26T01:44:42.431Z,31.70
2022-10-26T01:47:47.929Z,31.80
2022-10-26T01:50:53.348Z,31.80
2022-10-26T01:53:56.069Z,31.90
2022-10-26T01:57:04.167Z,31.90
2022-10-26T02:00:09.877Z,32.00
2022-10-26T02:03:15.047Z,32.00
2022-10-26T02:06:30.816Z,32.00
2022-10-26T02:09:35.660Z,32.10
2022-10-26T02:12:56.232Z,32.20
2022-10-26T02:16:01.832Z,32.30
2022-10-26T02:19:09.599Z,32.30
2022-10-26T02:22:36.816Z,32.40
2022-10-26T02:25:44.745Z,32.40
2022-10-26T02:28:50.789Z,32.40
2022-10-26T02:31:54.039Z,32.30
2022-10-26T02:34:58.878Z,32.40
2022-10-26T02:38:04.747Z,32.30
2022-10-26T02:41:08.211Z,32.30
2022-10-26T02:44:28.851Z,32.20
2022-10-26T02:47:31.353Z,32.20
2022-10-26T02:50:39.848Z,32.20
2022-10-26T02:53:57.832Z,32.20
2022-10-26T02:57:24.981Z,32.20
2022-10-26T03:00:27.205Z,32.20
2022-10-26T03:03:29.280Z,32.20
2022-10-26T03:06:31.375Z,32.00
2022-10-26T03:09:33.340Z,31.90
2022-10-26T03:12:35.410Z,31.80
2022-10-26T03:15:37.525Z,31.80
2022-10-26T03:18:39.640Z,31.80
2022-10-26T03:21:42.397Z,31.80
2022-10-26T03:24:44.583Z,31.70
2022-10-26T03:27:46.689Z,31.60
2022-10-26T03:30:49.010Z,31.60
2022-10-26T03:33:50.975Z,31.60
2022-10-26T03:36:53.051Z,31.50
2022-10-26T03:39:55.031Z,31.50
2022-10-26T03:42:57.133Z,31.50
2022-10-26T03:45:59.107Z,31.40
2022-10-26T03:49:01.273Z,31.40
2022-10-26T03:52:03.329Z,31.40
2022-10-26T03:55:06.773Z,31.40
2022-10-26T03:58:08.649Z,31.40
2022-10-26T04:01:10.953Z,31.50
2022-10-26T04:04:12.964Z,31.50
2022-10-26T04:07:15.264Z,31.50
2022-10-26T04:10:17.146Z,31.50
2022-10-26T04:13:19.262Z,31.50
2022-10-26T04:16:22.128Z,31.50
2022-10-26T04:19:24.369Z,31.50
2022-10-26T04:22:26.461Z,31.50
2022-10-26T04:25:32.791Z,31.50
2022-10-26T04:28:35.374Z,31.50
2022-10-26T04:31:37.559Z,31.40
2022-10-26T04:34:39.476Z,31.50
2022-10-26T04:37:41.598Z,31.50
2022-10-26T04:40:43.562Z,31.50
2022-10-26T04:43:45.626Z,31.50
2022-10-26T04:46:47.768Z,31.50
2022-10-26T04:49:49.934Z,31.50
2022-10-26T04:52:52.108Z,31.50
2022-10-26T04:55:58.482Z,31.50
2022-10-26T04:59:00.403Z,31.40
2022-10-26T05:02:02.748Z,31.40
2022-10-26T05:05:06.906Z,31.40
2022-10-26T05:08:11.087Z,31.40
2022-10-26T05:11:12.996Z,31.50
2022-10-26T05:14:15.137Z,31.50
2022-10-26T05:17:17.044Z,31.40
2022-10-26T05:20:19.239Z,31.30
2022-10-26T05:23:22.161Z,31.40
2022-10-26T05:26:24.781Z,31.40
2022-10-26T05:29:26.736Z,31.50
2022-10-26T05:32:28.872Z,31.50
2022-10-26T05:35:32.097Z,31.50
2022-10-26T05:38:34.495Z,31.50
2022-10-26T05:41:36.355Z,31.50
2022-10-26T05:44:38.454Z,31.50
2022-10-26T05:47:41.558Z,31.40
2022-10-26T05:50:43.855Z,31.50
2022-10-26T05:53:46.040Z,31.50
2022-10-26T05:56:48.425Z,31.60
2022-10-26T05:59:50.693Z,31.40
2022-10-26T06:03:20.763Z,31.60
2022-10-26T06:06:23.457Z,31.60
2022-10-26T06:09:25.917Z,31.60
2022-10-26T06:12:28.148Z,31.70
2022-10-26T06:15:32.642Z,31.70
2022-10-26T06:18:42.958Z,31.70
2022-10-26T06:21:47.900Z,31.70
2022-10-26T06:24:55.429Z,31.70
2022-10-26T06:28:22.124Z,31.80
2022-10-26T06:31:24.334Z,31.80
2022-10-26T06:34:33.068Z,31.80
2022-10-26T06:37:36.623Z,31.90
2022-10-26T06:40:42.660Z,31.90
2022-10-26T06:43:44.893Z,31.90
2022-10-26T06:46:53.100Z,32.10
2022-10-26T06:50:09.761Z,32.10
2022-10-26T06:53:27.790Z,32.10
2022-10-26T06:56:36.636Z,32.30
2022-10-26T07:00:16.671Z,32.30
2022-10-26T07:03:18.712Z,32.40
2022-10-26T07:06:25.894Z,32.50
2022-10-26T07:09:30.611Z,32.40
2022-10-26T07:12:33.183Z,32.60
2022-10-26T07:15:37.032Z,32.50
2022-10-26T07:18:39.336Z,32.60
2022-10-26T07:21:41.264Z,32.70
2022-10-26T07:24:43.444Z,32.70
2022-10-26T07:27:45.357Z,32.80
2022-10-26T07:30:47.532Z,32.90
2022-10-26T07:33:49.473Z,32.90
2022-10-26T07:36:51.669Z,32.90
2022-10-26T07:39:57.047Z,32.90
2022-10-26T07:43:00.693Z,33.10
2022-10-26T07:46:02.920Z,33.10
2022-10-26T07:49:05.045Z,33.10
2022-10-26T07:52:07.028Z,33.20
2022-10-26T07:55:10.995Z,33.40
2022-10-26T07:58:13.196Z,33.50
2022-10-26T08:01:16.055Z,33.60
2022-10-26T08:04:18.309Z,33.70
2022-10-26T08:07:21.720Z,33.90
2022-10-26T08:10:26.568Z,34.00
2022-10-26T08:13:29.064Z,33.90
2022-10-26T08:16:31.447Z,33.90
2022-10-26T08:19:34.740Z,34.10
2022-10-26T08:22:39.612Z,34.20
2022-10-26T08:25:41.673Z,34.20
2022-10-26T08:28:43.601Z,34.30
2022-10-26T08:31:47.972Z,34.20
2022-10-26T08:34:49.955Z,34.30
2022-10-26T08:37:53.167Z,34.30
2022-10-26T08:40:57.796Z,34.40
2022-10-26T08:44:20.937Z,34.40
2022-10-26T08:47:30.050Z,34.40
2022-10-26T08:50:40.534Z,34.40
2022-10-26T08:53:54.393Z,34.30
2022-10-26T08:57:00.461Z,34.40
2022-10-26T09:00:15.594Z,34.40
2022-10-26T09:03:18.889Z,34.40
2022-10-26T09:06:45.474Z,34.30
2022-10-26T09:10:11.461Z,34.30
2022-10-26T09:13:23.909Z,34.60
2022-10-26T09:16:33.673Z,34.50
2022-10-26T09:19:47.662Z,34.50
2022-10-26T09:23:27.600Z,34.20
2022-10-26T09:26:32.553Z,33.80
2022-10-26T09:29:41.739Z,33.90
2022-10-26T09:32:47.696Z,33.90
2022-10-26T09:35:54.555Z,33.80
2022-10-26T09:39:03.297Z,34.00
2022-10-26T09:42:18.391Z,34.10
2022-10-26T09:45:30.085Z,34.00
2022-10-26T09:48:56.046Z,34.10
2022-10-26T09:51:58.334Z,34.10
2022-10-26T09:55:00.514Z,34.10
2022-10-26T09:58:06.317Z,34.20
2022-10-26T10:01:21.867Z,34.20
2022-10-26T10:04:24.162Z,34.20
2022-10-26T10:07:26.256Z,34.20
2022-10-26T10:10:28.219Z,34.20
2022-10-26T10:13:33.328Z,34.30
2022-10-26T10:16:36.060Z,34.30
2022-10-26T10:19:39.260Z,34.10
2022-10-26T10:22:57.571Z,34.30
2022-10-26T10:26:18.021Z,34.40
2022-10-26T10:29:19.900Z,34.60
2022-10-26T10:32:35.810Z,34.80
2022-10-26T10:35:49.800Z,34.70
2022-10-26T10:38:53.992Z,34.70
2022-10-26T10:41:57.160Z,34.80
2022-10-26T10:45:00.625Z,34.80
2022-10-26T10:48:02.481Z,34.80
2022-10-26T10:51:12.472Z,34.50
2022-10-26T10:54:38.986Z,34.40
2022-10-26T10:57:57.917Z,34.60
2022-10-26T11:00:59.828Z,34.50
2022-10-26T11:04:39.107Z,34.50
2022-10-26T11:08:07.355Z,34.50
2022-10-26T11:11:23.156Z,34.60
2022-10-26T11:14:29.742Z,34.50
2022-10-26T11:17:57.346Z,34.50
2022-10-26T11:21:20.783Z,34.60
2022-10-26T11:24:25.745Z,34.80
2022-10-26T11:27:39.829Z,35.00
2022-10-26T11:30:49.135Z,35.10
2022-10-26T11:34:13.523Z,35.10
2022-10-26T11:37:19.639Z,35.10
2022-10-26T11:40:44.741Z,35.30
2022-10-26T11:44:09.198Z,35.50
2022-10-26T11:47:22.303Z,35.60
2022-10-26T11:50:29.472Z,35.70
2022-10-26T11:53:38.683Z,35.70
2022-10-26T11:56:48.548Z,35.80
2022-10-26T12:00:13.213Z,35.70
2022-10-26T12:03:19.873Z,35.80
2022-10-26T12:06:27.481Z,35.90
2022-10-26T12:09:35.739Z,36.00
2022-10-26T12:12:56.416Z,36.00
2022-10-26T12:16:03.952Z,35.90
2022-10-26T12:19:20.151Z,35.70
2022-10-26T12:22:29.269Z,35.90
2022-10-26T12:25:31.535Z,35.80
2022-10-26T12:28:36.352Z,35.80
2022-10-26T12:31:38.328Z,35.60
2022-10-26T12:34:40.440Z,35.60
2022-10-26T12:37:42.399Z,35.30
2022-10-26T12:40:44.975Z,35.40
2022-10-26T12:43:47.410Z,35.40
2022-10-26T12:46:49.752Z,35.50
2022-10-26T12:50:07.008Z,35.40
2022-10-26T12:53:18.353Z,35.60
2022-10-26T12:56:28.618Z,35.70
2022-10-26T12:59:56.776Z,35.70
2022-10-26T13:03:24.065Z,35.70
2022-10-26T13:06:47.303Z,35.70
2022-10-26T13:10:05.768Z,35.60
2022-10-26T13:13:08.915Z,35.30
2022-10-26T13:16:13.169Z,35.50
2022-10-26T13:19:54.999Z,35.40
2022-10-26T13:22:57.609Z,35.40
2022-10-26T13:26:05.741Z,35.10
2022-10-26T13:29:10.594Z,35.10
2022-10-26T13:32:14.209Z,35.40
2022-10-26T13:35:17.909Z,35.40
2022-10-26T13:38:23.341Z,35.30
2022-10-26T13:41:36.504Z,35.20
2022-10-26T13:44:53.996Z,35.10
2022-10-26T13:48:03.178Z,35.30
2022-10-26T13:51:35.168Z,35.40
2022-10-26T13:54:44.839Z,35.30
2022-10-26T13:58:21.927Z,35.20
2022-10-26T14:01:25.477Z,35.10
2022-10-26T14:04:28.654Z,35.10
2022-10-26T14:07:39.997Z,35.30
2022-10-26T14:10:45.580Z,35.40
2022-10-26T14:13:50.167Z,35.40
2022-10-26T14:16:54.130Z,35.20
2022-10-26T14:19:56.134Z,35.20
2022-10-26T14:22:58.288Z,35.10
2022-10-26T14:26:00.271Z,35.10
2022-10-26T14:29:02.529Z,35.10
2022-10-26T14:32:37.995Z,35.00
2022-10-26T14:35:42.111Z,35.00
2022-10-26T14:38:47.668Z,34.90
2022-10-26T14:41:52.929Z,34.90
2022-10-26T14:44:55.418Z,34.90
2022-10-26T14:47:59.104Z,35.00
2022-10-26T14:51:18.824Z,35.00
2022-10-26T14:54:23.627Z,35.10
2022-10-26T14:57:36.647Z,35.20
2022-10-26T15:00:38.787Z,35.20
2022-10-26T15:03:42.148Z,35.20
2022-10-26T15:06:46.251Z,35.10
2022-10-26T15:09:53.159Z,35.10
2022-10-26T15:12:55.307Z,35.00
2022-10-26T15:16:31.252Z,35.00
2022-10-26T15:19:33.824Z,34.90
2022-10-26T15:22:43.547Z,34.80
2022-10-26T15:26:02.680Z,34.70
2022-10-26T15:29:04.696Z,34.70
2022-10-26T15:32:18.877Z,34.60
2022-10-26T15:35:24.230Z,34.50
2022-10-26T15:38:29.812Z,34.40
2022-10-26T15:41:38.845Z,34.30
2022-10-26T15:44:43.654Z,34.20
2022-10-26T15:47:47.230Z,34.10
2022-10-26T15:50:49.391Z,34.00
2022-10-26T15:53:51.795Z,33.90
2022-10-26T15:56:53.990Z,33.80
2022-10-26T15:59:55.991Z,33.70
2022-10-26T16:02:58.131Z,33.60
2022-10-26T16:06:02.214Z,33.50
2022-10-26T16:09:06.245Z,33.40
2022-10-26T16:12:11.703Z,33.40
2022-10-26T16:15:22.488Z,33.30
2022-10-26T16:18:24.819Z,33.20
2022-10-26T16:21:26.909Z,33.10
2022-10-26T16:24:31.054Z,33.10
2022-10-26T16:27:33.116Z,33.10
2022-10-26T16:30:36.945Z,33.00
2022-10-26T16:33:39.216Z,32.90
2022-10-26T16:36:41.303Z,32.90
2022-10-26T16:39:43.382Z,32.80
2022-10-26T16:42:45.573Z,32.70
2022-10-26T16:45:47.708Z,32.70
2022-10-26T16:48:50.516Z,32.60
2022-10-26T16:51:52.654Z,32.60
2022-10-26T16:54:54.985Z,32.50
2022-10-26T16:57:57.048Z,32.50
2022-10-26T17:00:58.981Z,32.50
2022-10-26T17:04:04.658Z,32.40
2022-10-26T17:07:06.622Z,32.30
2022-10-26T17:10:09.298Z,32.30
2022-10-26T17:13:11.285Z,32.30
2022-10-26T17:16:16.354Z,32.20
2022-10-26T17:19:18.482Z,32.20
2022-10-26T17:22:35.388Z,32.20
2022-10-26T17:25:38.786Z,32.10
2022-10-26T17:28:41.488Z,32.10
2022-10-26T17:31:43.936Z,32.10
2022-10-26T17:34:46.707Z,32.10
2022-10-26T17:37:49.523Z,32.00
2022-10-26T17:40:52.413Z,32.00
2022-10-26T17:43:55.064Z,32.00
2022-10-26T17:46:57.693Z,32.00
2022-10-26T17:50:00.307Z,32.00
2022-10-26T17:53:03.017Z,32.00
2022-10-26T17:56:12.524Z,32.00
2022-10-26T17:59:15.096Z,32.00
2022-10-26T18:02:17.757Z,32.00
2022-10-26T18:05:23.357Z,32.00
2022-10-26T18:08:25.662Z,32.10
2022-10-26T18:11:28.652Z,32.20
2022-10-26T18:14:31.461Z,32.20
2022-10-26T18:17:34.541Z,32.30
2022-10-26T18:20:37.133Z,32.30
2022-10-26T18:23:39.819Z,32.30
2022-10-26T18:26:42.208Z,32.30
2022-10-26T18:29:44.865Z,32.20
2022-10-26T18:32:50.005Z,32.20
2022-10-26T18:35:52.771Z,32.20
2022-10-26T18:38:55.708Z,32.20
2022-10-26T18:41:58.553Z,32.20
2022-10-26T18:45:03.227Z,32.10
2022-10-26T18:48:06.304Z,32.10
2022-10-26T18:51:11.837Z,32.10
2022-10-26T18:54:14.836Z,32.10
2022-10-26T18:57:24.615Z,32.10
2022-10-26T19:00:27.582Z,32.10
2022-10-26T19:03:30.411Z,32.10
2022-10-26T19:06:38.417Z,32.00
2022-10-26T19:09:40.864Z,32.00
2022-10-26T19:12:43.229Z,32.00
2022-10-26T19:15:50.167Z,32.10
2022-10-26T19:22:01.050Z,32.10
2022-10-26T19:25:03.867Z,32.10
2022-10-26T19:28:06.000Z,32.20
2022-10-26T19:31:11.172Z,32.20
2022-10-26T19:34:14.399Z,32.30
2022-10-26T19:37:16.466Z,32.30
2022-10-26T19:40:18.352Z,32.30
2022-10-26T19:43:20.483Z,32.30
2022-10-26T19:46:27.931Z,32.40
2022-10-26T19:49:30.129Z,32.40
2022-10-26T19:52:32.015Z,32.40
2022-10-26T19:55:34.662Z,32.30
2022-10-26T19:58:37.750Z,32.30
2022-10-26T20:01:40.211Z,32.30
2022-10-26T20:04:43.573Z,32.20
2022-10-26T20:07:46.064Z,32.20
2022-10-26T20:10:48.320Z,32.10
2022-10-26T20:13:50.613Z,32.10
2022-10-26T20:16:54.545Z,32.10
2022-10-26T20:19:57.098Z,32.00
2022-10-26T20:22:59.841Z,31.90
2022-10-26T20:26:03.337Z,31.90
2022-10-26T20:29:05.583Z,31.90
2022-10-26T20:32:07.946Z,31.90
2022-10-26T20:35:10.241Z,31.80
2022-10-26T20:38:21.458Z,31.70
2022-10-26T20:41:23.728Z,31.70
2022-10-26T20:44:30.911Z,31.70
2022-10-26T20:47:33.242Z,31.70
2022-10-26T20:50:35.726Z,31.60
2022-10-26T20:53:49.012Z,31.60
2022-10-26T20:56:51.538Z,31.60
2022-10-26T20:59:59.177Z,31.60
2022-10-26T21:03:01.538Z,31.60
2022-10-26T21:06:03.618Z,31.60
2022-10-26T21:09:06.532Z,31.60
2022-10-26T21:12:08.404Z,31.60
2022-10-26T21:15:12.088Z,31.60
2022-10-26T21:18:14.040Z,31.60
2022-10-26T21:21:16.184Z,31.60
2022-10-26T21:24:18.045Z,31.60
2022-10-26T21:27:20.238Z,31.50
2022-10-26T21:30:22.591Z,31.50
2022-10-26T21:33:31.881Z,31.50
2022-10-26T21:36:33.791Z,31.40
2022-10-26T21:39:35.890Z,31.30
2022-10-26T21:42:37.808Z,31.30
2022-10-26T21:45:39.887Z,31.30
2022-10-26T21:48:42.130Z,31.30
2022-10-26T21:51:44.289Z,31.20
2022-10-26T21:54:46.223Z,31.10
2022-10-26T21:57:48.764Z,31.10
2022-10-26T22:00:50.781Z,31.10
2022-10-26T22:03:52.891Z,31.10
2022-10-26T22:06:54.860Z,31.10
2022-10-26T22:10:10.361Z,31.10
2022-10-26T22:13:13.048Z,31.10
2022-10-26T22:16:20.928Z,31.20
2022-10-26T22:19:22.865Z,31.20
2022-10-26T22:22:24.929Z,31.20
2022-10-26T22:25:26.930Z,31.20
2022-10-26T22:28:32.029Z,31.20
2022-10-26T22:31:37.875Z,31.20
2022-10-26T22:34:39.941Z,31.30
2022-10-26T22:37:44.505Z,31.30
2022-10-26T22:40:55.121Z,31.40
2022-10-26T22:43:57.001Z,31.40
2022-10-26T22:46:59.656Z,31.40
2022-10-26T22:50:01.589Z,31.50
2022-10-26T22:53:03.810Z,31.50
2022-10-26T22:56:07.914Z,31.60
2022-10-26T22:59:10.040Z,31.60
2022-10-26T23:02:12.032Z,31.60
2022-10-26T23:05:14.278Z,31.70
2022-10-26T23:08:16.226Z,31.70
2022-10-26T23:11:21.066Z,31.80
2022-10-26T23:14:23.073Z,31.80
2022-10-26T23:17:25.153Z,31.80
2022-10-26T23:20:27.025Z,31.90
2022-10-26T23:23:29.277Z,31.90
2022-10-26T23:26:31.258Z,31.90
2022-10-26T23:29:33.405Z,31.90
2022-10-26T23:32:36.790Z,31.90
2022-10-26T23:35:40.346Z,31.90
2022-10-26T23:38:42.226Z,31.80
2022-10-26T23:41:44.306Z,31.70
2022-10-26T23:44:46.162Z,31.70
2022-10-26T23:47:48.979Z,31.70
2022-10-26T23:50:52.515Z,31.60
2022-10-26T23:53:54.646Z,31.60
2022-10-26T23:56:56.552Z,31.50
2022-10-26T23:59:58.646Z,31.50
